createdAt,value
2019-06-15T00:00:59.971Z,0
2019-06-15T00:02:00.093Z,0
2019-06-15T00:03:01.068Z,0
2019-06-15T00:04:01.349Z,0
2019-06-15T00:05:01.760Z,0
2019-06-15T00:06:02.782Z,0
2019-06-15T00:07:04.227Z,0
2019-06-15T00:08:04.827Z,0
2019-06-15T00:09:03.721Z,0
2019-06-15T00:10:03.846Z,0
2019-06-15T00:11:04.258Z,0
2019-06-15T00:12:04.374Z,0
2019-06-15T00:13:05.062Z,0
2019-06-15T00:14:05.773Z,0
2019-06-15T00:15:06.470Z,0
2019-06-15T00:16:07.179Z,0
2019-06-15T00:17:08.164Z,0
2019-06-15T00:18:08.824Z,0
2019-06-15T00:19:09.507Z,0
2019-06-15T00:20:10.849Z,0
2019-06-15T00:21:11.580Z,0
2019-06-15T00:22:12.316Z,0
2019-06-15T00:23:12.846Z,0
2019-06-15T00:24:13.440Z,0
2019-06-15T00:25:13.840Z,0
2019-06-15T00:26:14.533Z,0
2019-06-15T00:27:14.954Z,0
2019-06-15T00:28:15.391Z,0
2019-06-15T00:29:16.085Z,0
2019-06-15T00:30:16.512Z,0
2019-06-15T00:31:17.224Z,0
2019-06-15T00:32:17.349Z,0
2019-06-15T00:33:18.111Z,0
2019-06-15T00:34:19.072Z,0
2019-06-15T00:35:19.788Z,0
2019-06-15T00:36:20.481Z,0
2019-06-15T00:37:20.686Z,0
2019-06-15T00:38:21.395Z,0
2019-06-15T00:39:21.788Z,0
2019-06-15T00:40:22.507Z,0
2019-06-15T00:41:22.531Z,0
2019-06-15T00:42:22.647Z,0
2019-06-15T00:43:23.064Z,0
2019-06-15T00:44:23.288Z,0
2019-06-15T00:45:23.416Z,0
2019-06-15T00:46:23.833Z,0
2019-06-15T00:47:24.538Z,0
2019-06-15T00:48:25.390Z,0
2019-06-15T00:49:26.188Z,0
2019-06-15T00:50:26.308Z,0
2019-06-15T00:51:26.709Z,0
2019-06-15T00:52:27.413Z,0
2019-06-15T00:53:27.865Z,0
2019-06-15T00:54:28.130Z,0
2019-06-15T00:55:28.828Z,0
2019-06-15T00:56:29.007Z,0
2019-06-15T00:57:29.405Z,0
2019-06-15T00:58:30.390Z,0
2019-06-15T00:59:30.514Z,0
2019-06-15T01:00:30.964Z,0
2019-06-15T01:01:31.704Z,0
2019-06-15T01:02:32.708Z,0
2019-06-15T01:03:32.835Z,0
2019-06-15T01:04:33.514Z,0
2019-06-15T01:05:34.241Z,0
2019-06-15T01:06:34.668Z,0
2019-06-15T01:07:35.381Z,0
2019-06-15T01:08:35.786Z,0
2019-06-15T01:09:36.485Z,0
2019-06-15T01:10:36.907Z,0
2019-06-15T01:11:37.981Z,0
2019-06-15T01:12:38.406Z,0
2019-06-15T01:13:38.823Z,0
2019-06-15T01:14:39.845Z,0
2019-06-15T01:15:40.242Z,0
2019-06-15T01:16:40.961Z,0
2019-06-15T01:17:41.364Z,0
2019-06-15T01:18:42.410Z,0
2019-06-15T01:19:42.533Z,0
2019-06-15T01:20:42.937Z,0
2019-06-15T01:21:43.941Z,0
2019-06-15T01:22:44.090Z,0
2019-06-15T01:23:45.121Z,0
2019-06-15T01:24:46.104Z,0
2019-06-15T01:25:46.456Z,0
2019-06-15T01:26:47.435Z,0
2019-06-15T01:27:47.863Z,0
2019-06-15T01:28:48.880Z,0
2019-06-15T01:29:49.299Z,0
2019-06-15T01:30:49.423Z,0
2019-06-15T01:31:49.549Z,0
2019-06-15T01:32:49.969Z,0
2019-06-15T01:33:50.113Z,0
2019-06-15T01:34:50.350Z,0
2019-06-15T01:35:50.774Z,0
2019-06-15T01:36:51.195Z,0
2019-06-15T01:37:51.903Z,0
2019-06-15T01:38:52.618Z,0
2019-06-15T01:39:52.334Z,0
2019-06-15T01:40:53.349Z,0
2019-06-15T01:41:54.058Z,0
2019-06-15T01:42:54.768Z,0
2019-06-15T01:43:55.479Z,0
2019-06-15T01:44:56.024Z,0
2019-06-15T01:45:56.155Z,0
2019-06-15T01:46:57.169Z,0
2019-06-15T01:47:57.619Z,0
2019-06-15T01:48:58.126Z,0
2019-06-15T01:49:58.529Z,0
2019-06-15T01:50:58.649Z,0
2019-06-15T01:51:59.070Z,0
2019-06-15T01:52:59.196Z,0
2019-06-15T01:53:59.615Z,0
2019-06-15T01:54:59.854Z,0
2019-06-15T01:56:01.484Z,0
2019-06-15T01:57:01.899Z,0
2019-06-15T01:58:02.922Z,0
2019-06-15T01:59:03.434Z,0
2019-06-15T02:00:03.861Z,0
2019-06-15T02:01:04.584Z,0
2019-06-15T02:02:04.715Z,0
2019-06-15T02:03:04.901Z,0
2019-06-15T02:04:05.055Z,0
2019-06-15T02:05:06.375Z,0
2019-06-15T02:06:07.053Z,0
2019-06-15T02:07:07.515Z,0
2019-06-15T02:08:07.949Z,0
2019-06-15T02:09:08.403Z,0
2019-06-15T02:10:09.410Z,0
2019-06-15T02:11:09.831Z,0
2019-06-15T02:12:10.531Z,0
2019-06-15T02:13:11.676Z,0
2019-06-15T02:14:12.686Z,0
2019-06-15T02:15:13.665Z,0
2019-06-15T02:16:13.876Z,0
2019-06-15T02:17:14.294Z,0
2019-06-15T02:18:14.991Z,0
2019-06-15T02:19:15.426Z,0
2019-06-15T02:20:16.431Z,0
2019-06-15T02:21:16.642Z,0
2019-06-15T02:22:17.056Z,0
2019-06-15T02:23:17.821Z,0
2019-06-15T02:24:18.243Z,0
2019-06-15T02:25:18.812Z,0
2019-06-15T02:26:18.997Z,0
2019-06-15T02:27:19.416Z,0
2019-06-15T02:28:20.133Z,0
2019-06-15T02:29:20.534Z,0
2019-06-15T02:30:21.231Z,0
2019-06-15T02:31:22.250Z,0
2019-06-15T02:32:23.252Z,0
2019-06-15T02:33:22.958Z,0
2019-06-15T02:34:24.008Z,0
2019-06-15T02:35:24.298Z,0
2019-06-15T02:36:24.308Z,0
2019-06-15T02:37:24.461Z,0
2019-06-15T02:38:25.444Z,0
2019-06-15T02:39:26.160Z,0
2019-06-15T02:40:26.729Z,0
2019-06-15T02:41:27.022Z,0
2019-06-15T02:42:27.733Z,0
2019-06-15T02:43:28.422Z,0
2019-06-15T02:44:28.570Z,0
2019-06-15T02:45:28.840Z,0
2019-06-15T02:46:31.992Z,0
2019-06-15T02:47:30.699Z,0
2019-06-15T02:48:30.831Z,0
2019-06-15T02:49:31.832Z,4
2019-06-15T02:50:32.243Z,4
2019-06-15T02:51:32.372Z,4
2019-06-15T02:52:33.087Z,0
2019-06-15T02:53:34.062Z,0
2019-06-15T02:54:34.185Z,4
2019-06-15T02:55:34.703Z,4
2019-06-15T02:56:35.723Z,4
2019-06-15T02:57:36.419Z,4
2019-06-15T02:58:37.124Z,8
2019-06-15T02:59:38.220Z,4
2019-06-15T03:00:38.223Z,8
2019-06-15T03:01:38.916Z,8
2019-06-15T03:02:39.355Z,8
2019-06-15T03:03:39.758Z,12
2019-06-15T03:04:40.468Z,12
2019-06-15T03:05:40.444Z,12
2019-06-15T03:06:41.158Z,16
2019-06-15T03:07:41.892Z,16
2019-06-15T03:08:42.010Z,16
2019-06-15T03:09:42.726Z,16
2019-06-15T03:10:43.126Z,20
2019-06-15T03:11:43.818Z,24
2019-06-15T03:12:44.247Z,24
2019-06-15T03:13:45.276Z,24
2019-06-15T03:14:45.987Z,28
2019-06-15T03:15:46.227Z,32
2019-06-15T03:16:46.946Z,32
2019-06-15T03:17:47.667Z,36
2019-06-15T03:18:48.722Z,40
2019-06-15T03:19:49.136Z,40
2019-06-15T03:20:50.137Z,44
2019-06-15T03:21:49.567Z,48
2019-06-15T03:22:50.039Z,52
2019-06-15T03:23:50.468Z,56
2019-06-15T03:24:51.201Z,60
2019-06-15T03:26:04.556Z,60
2019-06-15T03:26:52.778Z,60
2019-06-15T03:27:53.178Z,64
2019-06-15T03:28:53.315Z,68
2019-06-15T03:29:53.443Z,76
2019-06-15T03:30:53.929Z,76
2019-06-15T03:31:54.970Z,80
2019-06-15T03:32:56.250Z,88
2019-06-15T03:33:56.284Z,88
2019-06-15T03:34:57.323Z,92
2019-06-15T03:35:58.180Z,100
2019-06-15T03:36:58.254Z,100
2019-06-15T03:37:58.376Z,108
2019-06-15T03:38:58.840Z,112
2019-06-15T03:39:59.556Z,116
2019-06-15T03:41:00.272Z,120
2019-06-15T03:42:00.961Z,124
2019-06-15T03:43:01.666Z,132
2019-06-15T03:44:02.065Z,136
2019-06-15T03:45:02.482Z,140
2019-06-15T03:46:02.769Z,144
2019-06-15T03:47:03.478Z,148
2019-06-15T03:48:03.907Z,152
2019-06-15T03:49:04.315Z,152
2019-06-15T03:50:04.735Z,156
2019-06-15T03:51:05.456Z,160
2019-06-15T03:52:06.781Z,164
2019-06-15T03:53:07.500Z,164
2019-06-15T03:54:07.624Z,168
2019-06-15T03:55:08.034Z,176
2019-06-15T03:56:20.895Z,176
2019-06-15T03:57:09.243Z,180
2019-06-15T03:58:09.995Z,188
2019-06-15T03:59:10.415Z,192
2019-06-15T04:00:10.854Z,196
2019-06-15T04:01:11.285Z,204
2019-06-15T04:02:12.037Z,212
2019-06-15T04:03:12.513Z,216
2019-06-15T04:04:12.699Z,224
2019-06-15T04:05:13.739Z,228
2019-06-15T04:06:13.029Z,240
2019-06-15T04:07:13.729Z,248
2019-06-15T04:08:14.200Z,260
2019-06-15T04:09:15.482Z,272
2019-06-15T04:10:15.908Z,288
2019-06-15T04:11:16.079Z,300
2019-06-15T04:12:16.205Z,316
2019-06-15T04:13:16.611Z,332
2019-06-15T04:14:17.313Z,348
2019-06-15T04:15:17.732Z,364
2019-06-15T04:16:18.293Z,384
2019-06-15T04:17:19.090Z,404
2019-06-15T04:18:19.494Z,428
2019-06-15T04:19:19.629Z,452
2019-06-15T04:20:20.096Z,472
2019-06-15T04:21:20.497Z,500
2019-06-15T04:22:20.915Z,532
2019-06-15T04:23:22.205Z,572
2019-06-15T04:24:22.234Z,596
2019-06-15T04:25:22.766Z,620
2019-06-15T04:26:35.210Z,636
2019-06-15T04:27:24.440Z,664
2019-06-15T04:28:25.159Z,700
2019-06-15T04:29:25.283Z,716
2019-06-15T04:30:25.693Z,736
2019-06-15T04:31:25.823Z,752
2019-06-15T04:32:26.258Z,772
2019-06-15T04:33:26.394Z,792
2019-06-15T04:34:27.095Z,804
2019-06-15T04:35:27.789Z,824
2019-06-15T04:36:28.365Z,836
2019-06-15T04:37:28.774Z,852
2019-06-15T04:38:28.936Z,868
2019-06-15T04:39:29.083Z,892
2019-06-15T04:40:30.366Z,904
2019-06-15T04:41:30.101Z,924
2019-06-15T04:42:31.082Z,944
2019-06-15T04:43:31.486Z,968
2019-06-15T04:44:31.621Z,988
2019-06-15T04:45:31.843Z,1012
2019-06-15T04:46:33.097Z,1032
2019-06-15T04:47:33.215Z,1052
2019-06-15T04:48:34.529Z,1076
2019-06-15T04:49:35.260Z,1092
2019-06-15T04:50:35.981Z,1116
2019-06-15T04:51:36.389Z,1128
2019-06-15T04:52:37.161Z,1144
2019-06-15T04:53:37.584Z,1160
2019-06-15T04:54:38.038Z,1180
2019-06-15T04:55:38.207Z,1196
2019-06-15T04:56:50.177Z,1212
2019-06-15T04:57:39.354Z,1232
2019-06-15T04:58:40.402Z,1248
2019-06-15T04:59:40.523Z,1272
2019-06-15T05:00:40.986Z,1288
2019-06-15T05:01:41.406Z,1300
2019-06-15T05:02:41.542Z,1324
2019-06-15T05:03:41.988Z,1344
2019-06-15T05:04:42.689Z,1368
2019-06-15T05:05:43.112Z,1388
2019-06-15T05:06:43.642Z,1408
2019-06-15T05:07:44.066Z,1432
2019-06-15T05:08:44.484Z,1464
2019-06-15T05:09:45.220Z,1480
2019-06-15T05:10:45.922Z,1512
2019-06-15T05:11:46.667Z,1544
2019-06-15T05:12:47.354Z,1560
2019-06-15T05:13:47.482Z,1584
2019-06-15T05:14:47.923Z,1604
2019-06-15T05:15:48.119Z,1624
2019-06-15T05:16:48.669Z,1644
2019-06-15T05:17:51.970Z,1660
2019-06-15T05:18:49.983Z,1680
2019-06-15T05:19:50.402Z,1704
2019-06-15T05:20:51.102Z,1724
2019-06-15T05:21:51.521Z,1744
2019-06-15T05:22:52.523Z,1768
2019-06-15T05:23:53.000Z,1792
2019-06-15T05:24:53.698Z,1808
2019-06-15T05:25:54.167Z,1844
2019-06-15T05:27:05.770Z,1856
2019-06-15T05:27:55.860Z,1868
2019-06-15T05:28:55.264Z,1900
2019-06-15T05:29:56.630Z,1924
2019-06-15T05:30:56.169Z,1940
2019-06-15T05:31:57.162Z,1972
2019-06-15T05:32:57.496Z,2004
2019-06-15T05:33:57.917Z,2044
2019-06-15T05:34:58.905Z,2064
2019-06-15T05:35:59.325Z,2100
2019-06-15T05:36:59.582Z,2144
2019-06-15T05:38:00.352Z,2156
2019-06-15T05:39:00.569Z,2176
2019-06-15T05:40:00.992Z,2208
2019-06-15T05:41:01.118Z,2216
2019-06-15T05:42:02.244Z,2244
2019-06-15T05:43:01.701Z,2288
2019-06-15T05:44:02.124Z,2320
2019-06-15T05:45:02.889Z,2332
2019-06-15T05:46:03.890Z,2344
2019-06-15T05:47:03.714Z,2388
2019-06-15T05:48:04.441Z,2400
2019-06-15T05:49:05.143Z,2432
2019-06-15T05:50:05.303Z,2456
2019-06-15T05:51:09.769Z,2392
2019-06-15T05:52:06.490Z,2536
2019-06-15T05:53:06.925Z,2512
2019-06-15T05:54:07.626Z,2564
2019-06-15T05:55:08.343Z,2600
2019-06-15T05:56:08.520Z,2492
2019-06-15T05:57:21.086Z,2624
2019-06-15T05:58:10.211Z,2348
2019-06-15T05:59:11.003Z,2688
2019-06-15T06:00:11.716Z,2716
2019-06-15T06:01:12.436Z,2720
2019-06-15T06:02:13.191Z,2744
2019-06-15T06:03:13.675Z,2792
2019-06-15T06:04:13.806Z,2784
2019-06-15T06:05:13.932Z,2784
2019-06-15T06:06:14.912Z,2820
2019-06-15T06:07:15.457Z,2880
2019-06-15T06:08:16.470Z,2916
2019-06-15T06:09:16.893Z,2936
2019-06-15T06:10:17.618Z,2956
2019-06-15T06:11:18.042Z,3004
2019-06-15T06:12:18.462Z,3020
2019-06-15T06:13:18.905Z,3020
2019-06-15T06:14:19.637Z,3060
2019-06-15T06:15:19.776Z,3108
2019-06-15T06:16:20.258Z,3128
2019-06-15T06:17:21.216Z,3152
2019-06-15T06:18:21.639Z,3184
2019-06-15T06:19:22.353Z,3200
2019-06-15T06:20:22.769Z,3252
2019-06-15T06:21:22.909Z,3256
2019-06-15T06:22:23.322Z,3280
2019-06-15T06:23:23.765Z,3308
2019-06-15T06:24:24.170Z,3332
2019-06-15T06:25:24.882Z,3376
2019-06-15T06:26:25.588Z,3400
2019-06-15T06:27:36.026Z,3416
2019-06-15T06:28:25.992Z,3480
2019-06-15T06:29:26.418Z,3448
2019-06-15T06:30:30.024Z,3520
2019-06-15T06:31:27.277Z,3520
2019-06-15T06:32:28.017Z,3520
2019-06-15T06:33:28.443Z,3508
2019-06-15T06:34:28.869Z,3556
2019-06-15T06:35:29.014Z,3612
2019-06-15T06:36:29.454Z,3668
2019-06-15T06:37:30.006Z,3668
2019-06-15T06:38:31.301Z,3676
2019-06-15T06:39:30.735Z,3720
2019-06-15T06:40:31.482Z,3716
2019-06-15T06:41:31.612Z,3780
2019-06-15T06:42:32.043Z,3824
2019-06-15T06:43:32.756Z,3872
2019-06-15T06:44:33.186Z,3856
2019-06-15T06:45:33.906Z,3868
2019-06-15T06:46:34.625Z,3852
2019-06-15T06:47:34.855Z,3516
2019-06-15T06:48:35.868Z,3812
2019-06-15T06:49:36.572Z,3220
2019-06-15T06:50:40.575Z,3908
2019-06-15T06:51:37.699Z,3964
2019-06-15T06:52:38.710Z,4008
2019-06-15T06:53:39.230Z,4012
2019-06-15T06:54:39.998Z,3796
2019-06-15T06:55:40.459Z,4108
2019-06-15T06:56:40.886Z,4124
2019-06-15T06:58:01.968Z,4140
2019-06-15T06:58:42.100Z,4172
2019-06-15T06:59:42.799Z,4188
2019-06-15T07:00:43.244Z,4248
2019-06-15T07:01:43.693Z,4272
2019-06-15T07:02:43.834Z,4284
2019-06-15T07:03:43.978Z,4316
2019-06-15T07:04:44.971Z,4332
2019-06-15T07:05:45.393Z,4364
2019-06-15T07:06:46.472Z,4360
2019-06-15T07:07:47.313Z,4412
2019-06-15T07:08:48.106Z,4448
2019-06-15T07:09:48.872Z,4448
2019-06-15T07:10:49.015Z,4512
2019-06-15T07:11:50.191Z,4540
2019-06-15T07:12:51.193Z,4592
2019-06-15T07:13:52.498Z,4608
2019-06-15T07:14:52.502Z,4652
2019-06-15T07:15:53.226Z,4692
2019-06-15T07:16:54.394Z,4728
2019-06-15T07:17:53.959Z,4748
2019-06-15T07:18:55.417Z,4800
2019-06-15T07:19:55.130Z,4828
2019-06-15T07:20:55.918Z,4876
2019-06-15T07:21:56.680Z,4924
2019-06-15T07:22:56.812Z,4976
2019-06-15T07:23:57.583Z,5000
2019-06-15T07:24:58.609Z,5060
2019-06-15T07:25:59.382Z,5088
2019-06-15T07:26:59.851Z,5144
2019-06-15T07:28:13.923Z,5272
2019-06-15T07:29:01.071Z,6568
2019-06-15T07:30:02.839Z,14656
2019-06-15T07:31:02.239Z,19776
2019-06-15T07:32:02.672Z,23648
2019-06-15T07:33:03.111Z,25504
2019-06-15T07:34:03.989Z,20864
2019-06-15T07:35:04.393Z,17184
2019-06-15T07:36:04.919Z,13332
2019-06-15T07:37:07.148Z,9448
2019-06-15T07:38:06.742Z,9328
2019-06-15T07:39:07.193Z,10520
2019-06-15T07:40:08.291Z,10444
2019-06-15T07:41:08.422Z,12468
2019-06-15T07:42:09.344Z,23200
2019-06-15T07:43:09.628Z,21056
2019-06-15T07:44:09.778Z,10352
2019-06-15T07:45:09.918Z,7260
2019-06-15T07:46:10.457Z,7660
2019-06-15T07:47:11.020Z,9300
2019-06-15T07:48:11.612Z,13792
2019-06-15T07:49:12.200Z,9512
2019-06-15T07:50:12.666Z,10804
2019-06-15T07:51:13.162Z,8448
2019-06-15T07:52:13.874Z,13192
2019-06-15T07:53:14.606Z,12632
2019-06-15T07:54:14.903Z,16032
2019-06-15T07:55:15.458Z,15392
2019-06-15T07:56:16.525Z,13920
2019-06-15T07:57:16.674Z,11804
2019-06-15T07:58:30.662Z,14496
2019-06-15T07:59:18.104Z,17664
2019-06-15T08:00:18.521Z,23776
2019-06-15T08:01:18.953Z,24192
2019-06-15T08:02:19.680Z,23808
2019-06-15T08:03:20.774Z,23040
2019-06-15T08:04:20.497Z,24192
2019-06-15T08:05:21.308Z,25024
2019-06-15T08:06:22.312Z,24832
2019-06-15T08:07:23.350Z,24352
2019-06-15T08:08:23.299Z,23744
2019-06-15T08:09:24.023Z,24224
2019-06-15T08:10:24.490Z,24704
2019-06-15T08:11:25.254Z,24448
2019-06-15T08:12:25.688Z,24928
2019-06-15T08:13:26.398Z,25216
2019-06-15T08:14:26.815Z,25216
2019-06-15T08:15:27.576Z,25664
2019-06-15T08:16:28.608Z,25280
2019-06-15T08:17:29.348Z,25472
2019-06-15T08:18:29.578Z,25952
2019-06-15T08:19:30.311Z,26112
2019-06-15T08:20:31.444Z,23808
2019-06-15T08:21:31.815Z,22944
2019-06-15T08:22:31.952Z,19680
2019-06-15T08:23:33.279Z,17952
2019-06-15T08:24:33.513Z,19552
2019-06-15T08:25:33.986Z,25440
2019-06-15T08:26:35.063Z,23296
2019-06-15T08:27:35.773Z,23584
2019-06-15T08:28:50.775Z,24000
2019-06-15T08:29:36.215Z,21312
2019-06-15T08:30:36.700Z,22656
2019-06-15T08:31:37.819Z,23264
2019-06-15T08:32:38.595Z,21248
2019-06-15T08:33:39.325Z,23328
2019-06-15T08:34:40.371Z,23136
2019-06-15T08:35:39.906Z,23104
2019-06-15T08:36:40.327Z,22496
2019-06-15T08:37:40.524Z,23680
2019-06-15T08:38:40.887Z,23136
2019-06-15T08:39:41.619Z,23968
2019-06-15T08:40:42.727Z,23872
2019-06-15T08:41:43.186Z,22816
2019-06-15T08:42:43.610Z,23648
2019-06-15T08:43:44.341Z,22272
2019-06-15T08:44:45.054Z,22976
2019-06-15T08:45:45.769Z,23520
2019-06-15T08:46:46.197Z,24512
2019-06-15T08:47:46.718Z,26496
2019-06-15T08:48:47.288Z,24000
2019-06-15T08:49:48.012Z,23200
2019-06-15T08:50:48.153Z,19552
2019-06-15T08:51:49.261Z,20288
2019-06-15T08:52:50.036Z,20736
2019-06-15T08:53:49.292Z,23680
2019-06-15T08:54:50.352Z,20800
2019-06-15T08:55:51.417Z,17920
2019-06-15T08:56:51.867Z,16128
2019-06-15T08:57:52.414Z,17152
2019-06-15T08:59:06.012Z,22496
2019-06-15T08:59:53.763Z,17824
2019-06-15T09:00:54.622Z,18272
2019-06-15T09:01:55.558Z,17024
2019-06-15T09:02:55.574Z,14272
2019-06-15T09:03:55.173Z,12660
2019-06-15T09:04:55.443Z,12380
2019-06-15T09:05:56.436Z,10724
2019-06-15T09:06:56.881Z,12984
2019-06-15T09:07:57.769Z,13264
2019-06-15T09:08:58.293Z,11452
2019-06-15T09:09:58.756Z,16160
2019-06-15T09:10:59.769Z,15744
2019-06-15T09:12:00.197Z,12424
2019-06-15T09:13:00.402Z,12036
2019-06-15T09:14:01.406Z,16832
2019-06-15T09:15:01.940Z,16288
2019-06-15T09:16:02.705Z,16672
2019-06-15T09:17:02.855Z,17440
2019-06-15T09:18:03.890Z,11572
2019-06-15T09:19:03.869Z,11000
2019-06-15T09:20:04.585Z,13600
2019-06-15T09:21:05.597Z,12304
2019-06-15T09:22:05.889Z,11344
2019-06-15T09:23:06.033Z,10020
2019-06-15T09:24:06.499Z,9424
2019-06-15T09:25:07.252Z,10044
2019-06-15T09:26:08.299Z,14976
2019-06-15T09:27:09.020Z,14432
2019-06-15T09:28:10.367Z,14240
2019-06-15T09:29:22.869Z,12432
2019-06-15T09:30:11.649Z,12892
2019-06-15T09:31:12.489Z,16096
2019-06-15T09:32:12.256Z,16000
2019-06-15T09:33:13.141Z,16160
2019-06-15T09:34:28.654Z,12784
2019-06-15T09:35:14.117Z,11300
2019-06-15T09:36:14.574Z,11656
2019-06-15T09:37:15.012Z,10932
2019-06-15T09:38:15.253Z,10696
2019-06-15T09:39:20.063Z,6500
2019-06-15T09:40:17.821Z,6264
2019-06-15T09:41:18.820Z,6056
2019-06-15T09:42:19.299Z,6972
2019-06-15T09:43:20.004Z,8732
2019-06-15T09:44:20.767Z,9204
2019-06-15T09:45:21.492Z,9292
2019-06-15T09:46:21.654Z,8216
2019-06-15T09:47:22.197Z,8732
2019-06-15T09:48:22.716Z,6048
2019-06-15T09:49:24.037Z,5692
2019-06-15T09:50:24.464Z,7040
2019-06-15T09:51:25.507Z,8624
2019-06-15T09:52:26.229Z,10292
2019-06-15T09:53:26.955Z,11876
2019-06-15T09:54:28.156Z,12312
2019-06-15T09:55:27.685Z,11668
2019-06-15T09:56:28.398Z,15328
2019-06-15T09:57:28.827Z,13696
2019-06-15T09:58:29.832Z,12880
2019-06-15T09:59:38.430Z,10732
2019-06-15T10:00:31.653Z,11672
2019-06-15T10:01:32.412Z,11412
2019-06-15T10:02:33.113Z,11520
2019-06-15T10:03:33.345Z,10428
2019-06-15T10:04:33.809Z,10416
2019-06-15T10:05:33.947Z,10992
2019-06-15T10:06:34.392Z,12688
2019-06-15T10:07:35.512Z,13408
2019-06-15T10:08:35.951Z,12628
2019-06-15T10:09:36.869Z,14432
2019-06-15T10:10:36.886Z,12708
2019-06-15T10:11:37.330Z,11084
2019-06-15T10:12:38.055Z,8804
2019-06-15T10:13:38.479Z,9784
2019-06-15T10:14:39.484Z,10932
2019-06-15T10:15:39.991Z,10588
2019-06-15T10:16:41.068Z,7796
2019-06-15T10:17:41.827Z,6904
2019-06-15T10:18:44.983Z,7024
2019-06-15T10:19:43.512Z,7008
2019-06-15T10:20:44.231Z,9388
2019-06-15T10:21:44.684Z,8008
2019-06-15T10:22:44.821Z,10024
2019-06-15T10:23:45.616Z,7936
2019-06-15T10:24:46.064Z,9020
2019-06-15T10:25:46.202Z,8024
2019-06-15T10:26:47.885Z,6360
2019-06-15T10:27:48.879Z,6288
2019-06-15T10:28:49.375Z,6720
2019-06-15T10:29:53.767Z,6580
2019-06-15T10:30:53.200Z,7880
2019-06-15T10:31:53.752Z,12052
2019-06-15T10:32:54.222Z,11048
2019-06-15T10:33:54.733Z,10044
2019-06-15T10:34:54.883Z,8840
2019-06-15T10:35:55.324Z,9464
2019-06-15T10:36:55.764Z,7660
2019-06-15T10:37:56.781Z,7848
2019-06-15T10:38:56.535Z,8472
2019-06-15T10:39:57.097Z,8456
2019-06-15T10:40:57.566Z,7928
2019-06-15T10:41:58.584Z,8108
2019-06-15T10:42:59.557Z,7820
2019-06-15T10:43:59.585Z,9532
2019-06-15T10:45:00.308Z,10140
2019-06-15T10:46:01.029Z,8700
2019-06-15T10:47:01.749Z,7884
2019-06-15T10:48:02.858Z,8144
2019-06-15T10:49:06.681Z,9872
2019-06-15T10:50:03.752Z,7844
2019-06-15T10:51:04.472Z,7872
2019-06-15T10:52:04.613Z,10016
2019-06-15T10:53:05.916Z,8328
2019-06-15T10:54:06.355Z,9788
2019-06-15T10:55:07.688Z,7652
2019-06-15T10:56:08.729Z,7028
2019-06-15T10:57:08.876Z,7360
2019-06-15T10:58:09.585Z,6756
2019-06-15T10:59:10.774Z,6364
2019-06-15T11:00:11.190Z,7120
2019-06-15T11:01:11.354Z,8896
2019-06-15T11:02:11.491Z,9120
2019-06-15T11:03:11.920Z,10224
2019-06-15T11:04:12.638Z,10244
2019-06-15T11:05:12.694Z,10300
2019-06-15T11:06:13.866Z,9400
2019-06-15T11:07:13.878Z,8212
2019-06-15T11:08:14.637Z,7324
2019-06-15T11:09:15.164Z,6648
2019-06-15T11:10:15.869Z,6704
2019-06-15T11:11:16.878Z,7188
2019-06-15T11:12:16.914Z,7528
2019-06-15T11:13:17.342Z,7724
2019-06-15T11:14:17.493Z,7032
2019-06-15T11:15:17.935Z,7020
2019-06-15T11:16:19.320Z,7496
2019-06-15T11:17:19.046Z,9608
2019-06-15T11:18:19.486Z,9320
2019-06-15T11:19:20.493Z,6768
2019-06-15T11:20:21.500Z,6396
2019-06-15T11:21:22.330Z,6700
2019-06-15T11:22:22.112Z,7064
2019-06-15T11:23:22.266Z,7244
2019-06-15T11:24:23.014Z,7748
2019-06-15T11:25:23.445Z,8468
2019-06-15T11:26:24.454Z,9756
2019-06-15T11:27:25.222Z,9188
2019-06-15T11:28:27.313Z,7116
2019-06-15T11:29:26.748Z,7012
2019-06-15T11:30:26.067Z,8472
2019-06-15T11:31:26.523Z,7260
2019-06-15T11:32:27.205Z,7312
2019-06-15T11:33:27.927Z,8120
2019-06-15T11:34:28.636Z,6588
2019-06-15T11:35:28.647Z,6564
2019-06-15T11:36:29.659Z,8320
2019-06-15T11:37:30.441Z,6600
2019-06-15T11:38:31.248Z,6856
2019-06-15T11:39:31.693Z,6228
2019-06-15T11:40:32.993Z,6360
2019-06-15T11:41:33.469Z,6328
2019-06-15T11:42:33.922Z,6376
2019-06-15T11:43:34.636Z,6416
2019-06-15T11:44:35.397Z,6564
2019-06-15T11:45:35.843Z,8668
2019-06-15T11:46:36.023Z,8632
2019-06-15T11:47:37.346Z,7592
2019-06-15T11:48:37.496Z,7524
2019-06-15T11:49:38.262Z,10048
2019-06-15T11:50:39.312Z,10120
2019-06-15T11:51:39.458Z,10880
2019-06-15T11:52:40.263Z,8312
2019-06-15T11:53:40.513Z,7000
2019-06-15T11:54:40.649Z,6236
2019-06-15T11:55:50.739Z,5536
2019-06-15T11:56:41.443Z,5908
2019-06-15T11:57:42.155Z,7708
2019-06-15T11:58:42.930Z,7880
2019-06-15T11:59:43.069Z,7528
2019-06-15T12:00:43.722Z,6804
2019-06-15T12:01:44.435Z,6692
2019-06-15T12:02:45.144Z,6616
2019-06-15T12:03:46.460Z,6000
2019-06-15T12:04:57.883Z,5936
2019-06-15T12:05:47.796Z,5608
2019-06-15T12:06:48.523Z,5188
2019-06-15T12:07:48.956Z,4856
2019-06-15T12:08:49.406Z,4488
2019-06-15T12:09:51.521Z,4572
2019-06-15T12:10:51.124Z,4820
2019-06-15T12:11:51.560Z,4612
2019-06-15T12:12:51.995Z,4364
2019-06-15T12:13:52.987Z,4316
2019-06-15T12:14:54.081Z,4504
2019-06-15T12:15:54.588Z,4708
2019-06-15T12:16:55.728Z,4904
2019-06-15T12:17:55.962Z,5200
2019-06-15T12:18:56.415Z,5164
2019-06-15T12:19:57.412Z,4776
2019-06-15T12:20:58.045Z,3972
2019-06-15T12:21:59.359Z,3540
2019-06-15T12:22:59.489Z,3484
2019-06-15T12:24:00.535Z,3668
2019-06-15T12:25:00.685Z,3864
2019-06-15T12:26:01.387Z,4200
2019-06-15T12:27:01.806Z,4068
2019-06-15T12:28:02.239Z,3800
2019-06-15T12:29:03.280Z,3496
2019-06-15T12:30:03.750Z,3380
2019-06-15T12:31:04.518Z,3468
2019-06-15T12:32:04.956Z,3644
2019-06-15T12:33:05.088Z,3556
2019-06-15T12:34:05.819Z,3248
2019-06-15T12:35:06.612Z,3208
2019-06-15T12:36:18.582Z,3244
2019-06-15T12:37:08.108Z,3288
2019-06-15T12:38:09.498Z,3280
2019-06-15T12:39:09.714Z,3252
2019-06-15T12:40:10.858Z,3188
2019-06-15T12:41:10.520Z,3076
2019-06-15T12:42:11.248Z,2916
2019-06-15T12:43:11.738Z,2692
2019-06-15T12:44:12.515Z,2488
2019-06-15T12:45:13.286Z,2344
2019-06-15T12:46:14.661Z,2256
2019-06-15T12:47:15.160Z,2216
2019-06-15T12:48:15.609Z,2276
2019-06-15T12:49:16.391Z,2344
2019-06-15T12:50:16.825Z,2352
2019-06-15T12:51:17.190Z,2292
2019-06-15T12:52:17.728Z,2300
2019-06-15T12:53:18.539Z,2476
2019-06-15T12:54:19.250Z,2700
2019-06-15T12:55:20.302Z,2768
2019-06-15T12:56:23.057Z,2728
2019-06-15T12:57:20.607Z,2488
2019-06-15T12:58:21.371Z,2180
2019-06-15T12:59:22.477Z,2136
2019-06-15T13:00:21.624Z,2288
2019-06-15T13:01:24.579Z,2348
2019-06-15T13:02:23.427Z,2244
2019-06-15T13:03:24.436Z,2176
2019-06-15T13:04:24.871Z,2112
2019-06-15T13:05:25.944Z,1984
2019-06-15T13:06:26.679Z,1796
2019-06-15T13:07:26.941Z,1664
2019-06-15T13:08:27.571Z,1620
2019-06-15T13:09:28.348Z,1628
2019-06-15T13:10:29.459Z,1576
2019-06-15T13:11:30.135Z,1548
2019-06-15T13:12:30.497Z,1568
2019-06-15T13:13:31.876Z,1552
2019-06-15T13:14:31.304Z,1564
2019-06-15T13:15:31.767Z,1644
2019-06-15T13:16:47.989Z,1752
2019-06-15T13:17:32.624Z,1780
2019-06-15T13:18:33.207Z,1816
2019-06-15T13:19:33.675Z,1784
2019-06-15T13:20:34.669Z,1728
2019-06-15T13:21:35.226Z,1728
2019-06-15T13:22:35.954Z,1824
2019-06-15T13:23:36.087Z,1860
2019-06-15T13:24:36.225Z,1764
2019-06-15T13:25:37.235Z,1676
2019-06-15T13:26:37.390Z,1644
2019-06-15T13:27:41.015Z,1652
2019-06-15T13:28:39.460Z,1696
2019-06-15T13:29:39.599Z,1720
2019-06-15T13:30:39.738Z,1708
2019-06-15T13:31:40.074Z,1620
2019-06-15T13:32:40.513Z,1512
2019-06-15T13:33:41.214Z,1468
2019-06-15T13:34:41.633Z,1472
2019-06-15T13:35:42.369Z,1472
2019-06-15T13:36:42.796Z,1480
2019-06-15T13:37:52.595Z,1488
2019-06-15T13:38:44.868Z,1508
2019-06-15T13:39:45.869Z,1536
2019-06-15T13:40:46.888Z,1556
2019-06-15T13:41:46.730Z,1568
2019-06-15T13:42:47.202Z,1564
2019-06-15T13:43:47.650Z,1568